Time;durP1;ratioP1;P1;durP2;ratioP2;P2;SDS_P1;SDS_P2;PMS_P1;PMS_P2;Temp;Humidity;BMP_temperature;BMP_pressure;BME280_temperature;BME280_humidity;BME280_pressure;Samples;Min_cycle;Max_cycle;Signal;HPM_P1;HPM_P2
2023/03/13 00:00:09;;;;;;;;;;;;;;;14.05;53.29;96585.41;4986993;28;19917;-79
2023/03/13 00:02:34;;;;;;;;;;;;;;;14.14;53.17;96581.13;4987018;28;20000;-79
2023/03/13 00:05:00;;;;;;;;;;;;;;;13.87;54.00;96568.63;4977114;28;20114;-77
2023/03/13 00:07:25;;;;;;;;;;;;;;;13.89;53.92;96570.97;5008463;28;19921;-79
2023/03/13 00:09:50;;;;;;;;;;;;;;;14.17;53.38;96569.28;4992646;28;20011;-78
2023/03/13 00:12:16;;;;;;;;;;;;;;;14.11;53.61;96555.50;4972687;28;19914;-79
2023/03/13 00:14:42;;;;;;;;;;;;;;;14.31;52.68;96557.06;5002452;28;20015;-79
2023/03/13 00:17:07;;;;;;;;;;;;;;;14.26;53.15;96544.03;5003133;28;20005;-79
2023/03/13 00:19:32;;;;;;;;;;;;;;;13.81;54.54;96549.59;4973297;28;20301;-77
2023/03/13 00:21:57;;;;;;;;;;;;;;;13.94;54.29;96542.88;5020016;28;19921;-79
2023/03/13 00:24:23;;;;;;;;;;;;;;;14.21;53.93;96537.03;5004745;28;20289;-77
2023/03/13 00:26:48;;;;;;;;;;;;;;;14.28;53.62;96530.66;5008747;28;19919;-79
2023/03/13 00:29:13;;;;;;;;;;;;;;;14.10;54.18;96529.59;5006813;28;20442;-79
2023/03/13 00:31:38;;;;;;;;;;;;;;;14.27;53.65;96526.47;4990562;28;20008;-79
2023/03/13 00:34:04;;;;;;;;;;;;;;;14.17;54.11;96514.31;4991127;28;19913;-77
2023/03/13 00:36:30;;;;;;;;;;;;;;;14.15;54.41;96511.19;5001649;28;19944;-78
2023/03/13 00:38:56;;;;;;;;;;;;;;;14.15;54.18;96501.50;5004597;28;19969;-78
2023/03/13 00:41:26;;;;;;;;;;;;;;;14.34;53.85;96504.13;4987778;28;19956;-78
2023/03/13 00:43:51;;;;;;;;;;;;;;;14.29;53.94;96506.03;5007768;28;19922;-78
2023/03/13 00:46:17;;;;;;;;;;;;;;;14.10;54.67;96503.41;4993493;28;20340;-78
2023/03/13 00:48:43;;;;;;;;;;;;;;;14.21;53.95;96494.38;4990410;28;19923;-78
2023/03/13 00:51:08;;;;;;;;;;;;;;;14.37;53.69;96493.06;5006472;28;20351;-78
2023/03/13 00:53:33;;;;;;;;;;;;;;;14.38;53.82;96492.00;5002306;28;19913;-79
2023/03/13 00:55:59;;;;;;;;;;;;;;;14.64;53.04;96481.16;5005607;28;19921;-79
2023/03/13 00:58:25;;;;;;;;;;;;;;;14.46;53.49;96485.31;5006883;28;19924;-79
2023/03/13 01:00:51;;;;;;;;;;;;;;;13.89;54.96;96479.38;4985676;28;20004;-78
2023/03/13 01:03:16;;;;;;;;;;;;;;;14.29;54.38;96474.59;4989336;28;19918;-78
2023/03/13 01:05:41;;;;;;;;;;;;;;;14.28;54.32;96473.81;4973336;28;20385;-79
2023/03/13 01:08:07;;;;;;;;;;;;;;;14.41;54.11;96472.31;5003825;28;20470;-79
2023/03/13 01:10:32;;;;;;;;;;;;;;;14.54;53.74;96468.19;4989144;28;19917;-78
2023/03/13 01:12:58;;;;;;;;;;;;;;;14.31;54.16;96468.03;4985227;28;20013;-78
2023/03/13 01:15:23;;;;;;;;;;;;;;;14.30;54.28;96463.06;5004369;28;20272;-78
2023/03/13 01:17:48;;;;;;;;;;;;;;;14.07;55.37;96455.03;5007329;28;19921;-78
2023/03/13 01:20:13;;;;;;;;;;;;;;;14.37;54.50;96453.00;4973848;28;19913;-78
2023/03/13 01:22:39;;;;;;;;;;;;;;;13.98;55.16;96456.72;4989570;28;20012;-79
2023/03/13 01:25:04;;;;;;;;;;;;;;;14.42;54.36;96451.06;5005816;28;20396;-79
2023/03/13 01:27:29;;;;;;;;;;;;;;;14.36;55.00;96449.63;4978472;28;19972;-78
2023/03/13 01:29:55;;;;;;;;;;;;;;;14.28;55.40;96441.63;4973040;28;20381;-77
2023/03/13 01:32:20;;;;;;;;;;;;;;;14.32;55.58;96440.75;4973826;28;20015;-77
2023/03/13 01:34:45;;;;;;;;;;;;;;;14.23;56.00;96439.88;5006132;28;20024;-77
2023/03/13 01:37:11;;;;;;;;;;;;;;;14.63;55.33;96447.38;4996658;28;20209;-79
2023/03/13 01:39:36;;;;;;;;;;;;;;;14.40;56.02;96437.50;4990269;28;19920;-78
2023/03/13 01:42:02;;;;;;;;;;;;;;;14.11;57.70;96436.91;4983692;28;20020;-77
2023/03/13 01:44:27;;;;;;;;;;;;;;;13.86;59.89;96423.91;5004857;28;20007;-77
2023/03/13 01:46:53;;;;;;;;;;;;;;;14.33;59.05;96423.22;4990752;28;20009;-78
2023/03/13 01:49:18;;;;;;;;;;;;;;;14.03;60.04;96422.63;5007453;28;19917;-78
2023/03/13 01:52:13;;;;;;;;;;;;;;;14.15;60.14;96416.94;4989262;28;20138;-77
2023/03/13 01:54:40;;;;;;;;;;;;;;;13.76;61.67;96410.19;4997088;28;19919;-78
2023/03/13 01:57:05;;;;;;;;;;;;;;;13.92;61.92;96408.91;4998687;28;19913;-78
2023/03/13 01:59:41;;;;;;;;;;;;;;;14.09;61.45;96397.94;5004119;28;20353;-78
2023/03/13 02:02:06;;;;;;;;;;;;;;;13.91;62.48;96389.03;5003269;28;19923;-76
2023/03/13 02:04:34;;;;;;;;;;;;;;;13.97;62.72;96387.91;5053605;22;19928;-75
2023/03/13 02:07:00;;;;;;;;;;;;;;;13.85;63.08;96382.34;5001397;28;20011;-76
2023/03/13 02:09:26;;;;;;;;;;;;;;;13.79;64.14;96373.00;5008845;28;19921;-77
2023/03/13 02:11:53;;;;;;;;;;;;;;;13.84;63.84;96360.59;5008920;28;20498;-77
2023/03/13 02:14:19;;;;;;;;;;;;;;;14.01;63.96;96365.31;5000305;28;19940;-77
2023/03/13 02:16:47;;;;;;;;;;;;;;;13.53;65.59;96352.44;5019137;28;20303;-79
2023/03/13 02:19:17;;;;;;;;;;;;;;;13.45;66.25;96343.41;5019022;28;19936;-77
2023/03/13 02:21:46;;;;;;;;;;;;;;;13.63;65.64;96346.28;5022313;28;19919;-78
2023/03/13 02:24:13;;;;;;;;;;;;;;;13.73;65.76;96340.91;5025528;28;19963;-76
2023/03/13 02:26:38;;;;;;;;;;;;;;;13.52;66.81;96337.03;5025779;28;20012;-76
2023/03/13 02:29:03;;;;;;;;;;;;;;;13.88;65.84;96345.13;4992038;28;20428;-76
2023/03/13 02:31:30;;;;;;;;;;;;;;;13.89;66.07;96333.59;5015782;28;19913;-77
2023/03/13 02:33:55;;;;;;;;;;;;;;;13.85;66.18;96330.00;5008719;28;20265;-76
2023/03/13 02:36:23;;;;;;;;;;;;;;;13.67;66.64;96334.97;5013985;28;19920;-78
2023/03/13 02:39:00;;;;;;;;;;;;;;;13.33;68.54;96334.41;5023051;28;20410;-77
2023/03/13 02:41:25;;;;;;;;;;;;;;;13.74;67.11;96331.97;5008885;28;20356;-73
2023/03/13 02:43:50;;;;;;;;;;;;;;;13.40;68.59;96326.97;4995039;28;20051;-80
2023/03/13 02:46:17;;;;;;;;;;;;;;;13.81;67.64;96326.38;5020783;28;20020;-76
2023/03/13 02:48:43;;;;;;;;;;;;;;;13.63;67.81;96315.66;5019963;28;19913;-80
2023/03/13 02:51:13;;;;;;;;;;;;;;;13.29;69.74;96303.56;4991228;28;20311;-79
2023/03/13 02:53:38;;;;;;;;;;;;;;;13.79;67.97;96299.72;5026360;28;19917;-79
2023/03/13 02:56:04;;;;;;;;;;;;;;;13.35;69.76;96300.91;5011364;28;19913;-79
2023/03/13 02:58:34;;;;;;;;;;;;;;;13.28;70.30;96296.78;5020820;28;19913;-77
2023/03/13 03:01:06;;;;;;;;;;;;;;;13.22;70.69;96299.75;5003950;28;20319;-77
2023/03/13 03:03:31;;;;;;;;;;;;;;;13.75;68.61;96307.38;5028722;28;20287;-77
2023/03/13 03:05:56;;;;;;;;;;;;;;;13.57;68.94;96297.72;5010917;28;19916;-80
2023/03/13 03:08:22;;;;;;;;;;;;;;;13.56;69.52;96296.19;5027600;28;20090;-77
2023/03/13 03:10:47;;;;;;;;;;;;;;;13.70;68.45;96285.75;5011495;28;19920;-79
2023/03/13 03:13:12;;;;;;;;;;;;;;;13.92;67.67;96287.75;4993886;28;19913;-78
2023/03/13 03:15:38;;;;;;;;;;;;;;;13.92;68.04;96287.75;4990889;28;20333;-76
2023/03/13 03:18:03;;;;;;;;;;;;;;;14.06;67.31;96280.72;5023197;28;20399;-77
2023/03/13 03:20:28;;;;;;;;;;;;;;;13.79;68.87;96281.41;5007777;28;19917;-77
2023/03/13 03:22:54;;;;;;;;;;;;;;;13.68;68.67;96283.44;5016153;28;19963;-78
2023/03/13 03:25:21;;;;;;;;;;;;;;;13.55;69.46;96281.53;5011104;28;20361;-79
2023/03/13 03:27:46;;;;;;;;;;;;;;;13.63;69.22;96280.91;5029128;28;19913;-78
2023/03/13 03:30:12;;;;;;;;;;;;;;;13.52;70.12;96279.50;5004735;28;20399;-77
2023/03/13 03:32:37;;;;;;;;;;;;;;;13.71;68.65;96274.22;4998918;28;19920;-80
2023/03/13 03:35:02;;;;;;;;;;;;;;;13.76;68.81;96256.63;5012105;28;19913;-79
2023/03/13 03:37:28;;;;;;;;;;;;;;;14.12;67.84;96258.63;4999870;28;19909;-78
2023/03/13 03:39:53;;;;;;;;;;;;;;;14.00;68.37;96250.44;5031893;28;20444;-77
2023/03/13 03:42:18;;;;;;;;;;;;;;;13.64;69.58;96241.38;4998873;28;19921;-79
2023/03/13 03:44:44;;;;;;;;;;;;;;;13.39;71.07;96253.00;4996923;28;19925;-80
2023/03/13 03:47:09;;;;;;;;;;;;;;;13.43;70.33;96235.66;5030743;28;19924;-77
2023/03/13 03:49:34;;;;;;;;;;;;;;;13.45;70.64;96254.50;4999265;28;19948;-78
2023/03/13 03:51:59;;;;;;;;;;;;;;;13.65;69.60;96240.28;5030068;28;19913;-77
2023/03/13 03:54:25;;;;;;;;;;;;;;;13.90;68.93;96246.19;5031230;28;19920;-78
2023/03/13 03:56:51;;;;;;;;;;;;;;;14.07;68.15;96252.69;5009789;28;19920;-79
2023/03/13 03:59:16;;;;;;;;;;;;;;;13.78;69.00;96258.94;5018458;28;20303;-78
2023/03/13 04:01:43;;;;;;;;;;;;;;;13.70;69.99;96247.28;5008092;28;19927;-80
2023/03/13 04:04:08;;;;;;;;;;;;;;;13.38;71.22;96245.44;5030232;28;20365;-79
2023/03/13 04:06:34;;;;;;;;;;;;;;;14.03;69.29;96255.09;5029455;28;20008;-79
2023/03/13 04:08:59;;;;;;;;;;;;;;;14.08;68.47;96264.72;4995366;28;19913;-77
2023/03/13 04:11:24;;;;;;;;;;;;;;;13.99;68.82;96252.28;5022214;28;20253;-76
2023/03/13 04:13:49;;;;;;;;;;;;;;;13.99;69.00;96246.28;5031212;28;19913;-79
2023/03/13 04:16:15;;;;;;;;;;;;;;;13.71;69.58;96240.22;5029600;28;19913;-78
2023/03/13 04:18:40;;;;;;;;;;;;;;;13.95;69.31;96222.53;5030047;28;19919;-77
2023/03/13 04:21:05;;;;;;;;;;;;;;;13.97;69.20;96217.03;5020678;28;19917;-77
2023/03/13 04:23:31;;;;;;;;;;;;;;;13.92;69.18;96220.50;5008267;28;20008;-78
2023/03/13 04:25:56;;;;;;;;;;;;;;;13.93;69.63;96237.75;5014181;28;19917;-77
2023/03/13 04:28:21;;;;;;;;;;;;;;;14.15;68.65;96238.94;5029120;28;19921;-78
2023/03/13 04:30:47;;;;;;;;;;;;;;;13.83;70.29;96236.09;5009870;28;19943;-78
2023/03/13 04:33:12;;;;;;;;;;;;;;;14.07;69.05;96226.50;5017354;28;19913;-78
2023/03/13 04:35:37;;;;;;;;;;;;;;;14.21;69.08;96224.69;5027184;28;20362;-80
2023/03/13 04:38:02;;;;;;;;;;;;;;;14.15;68.74;96225.84;5012711;28;19913;-81
2023/03/13 04:40:28;;;;;;;;;;;;;;;14.04;69.11;96215.56;5012968;28;20731;-80
2023/03/13 04:42:53;;;;;;;;;;;;;;;14.07;69.01;96236.97;5013716;28;19917;-77
2023/03/13 04:45:18;;;;;;;;;;;;;;;13.97;69.37;96251.81;5016826;28;19928;-77
2023/03/13 04:47:45;;;;;;;;;;;;;;;13.80;70.19;96249.75;5016796;28;19913;-77
2023/03/13 04:50:10;;;;;;;;;;;;;;;14.10;69.64;96249.50;5029712;28;20384;-79
2023/03/13 04:52:35;;;;;;;;;;;;;;;13.96;69.64;96247.63;5013281;28;19913;-77
2023/03/13 04:55:00;;;;;;;;;;;;;;;13.96;69.76;96252.88;5010048;28;19915;-82
2023/03/13 04:57:26;;;;;;;;;;;;;;;13.81;70.87;96253.13;5029165;28;19956;-78
2023/03/13 04:59:51;;;;;;;;;;;;;;;14.10;69.54;96263.34;5029700;28;19923;-78
2023/03/13 05:02:16;;;;;;;;;;;;;;;14.00;69.85;96264.31;5012392;28;20352;-80
2023/03/13 05:04:43;;;;;;;;;;;;;;;13.93;70.16;96263.94;5029285;28;19921;-78
2023/03/13 05:07:08;;;;;;;;;;;;;;;14.05;69.96;96259.00;5012465;28;19917;-78
2023/03/13 05:09:33;;;;;;;;;;;;;;;14.22;69.85;96255.03;5013641;28;19920;-81
2023/03/13 05:11:58;;;;;;;;;;;;;;;14.23;69.46;96241.66;5012097;28;19921;-78
2023/03/13 05:14:24;;;;;;;;;;;;;;;14.50;67.88;96244.59;5012614;28;20012;-77
2023/03/13 05:16:49;;;;;;;;;;;;;;;14.52;68.17;96237.19;5012372;28;19913;-78
2023/03/13 05:19:14;;;;;;;;;;;;;;;14.39;67.81;96236.91;5028910;28;20291;-78
2023/03/13 05:21:39;;;;;;;;;;;;;;;14.37;68.54;96239.03;5012214;28;19913;-78
2023/03/13 05:24:05;;;;;;;;;;;;;;;14.69;67.30;96237.41;4996098;28;19917;-78
2023/03/13 05:26:30;;;;;;;;;;;;;;;14.64;67.76;96236.72;4995146;28;19971;-77
2023/03/13 05:28:55;;;;;;;;;;;;;;;14.14;69.64;96238.16;5014006;28;20395;-78
2023/03/13 05:31:21;;;;;;;;;;;;;;;14.26;69.33;96240.31;5012475;28;19925;-78
2023/03/13 05:33:46;;;;;;;;;;;;;;;14.55;68.53;96247.09;5029022;28;19913;-80
2023/03/13 05:36:11;;;;;;;;;;;;;;;14.36;69.40;96239.31;5013226;28;19913;-77
2023/03/13 05:38:36;;;;;;;;;;;;;;;14.21;69.97;96243.03;5026358;28;20408;-79
2023/03/13 05:41:02;;;;;;;;;;;;;;;14.30;68.83;96230.78;5027104;28;19917;-79
2023/03/13 05:43:27;;;;;;;;;;;;;;;14.27;69.24;96243.69;5012855;28;19913;-77
2023/03/13 05:45:52;;;;;;;;;;;;;;;14.49;68.71;96243.00;4995986;28;19921;-79
2023/03/13 05:48:17;;;;;;;;;;;;;;;14.18;69.84;96222.66;5027603;28;19925;-80
2023/03/13 05:50:43;;;;;;;;;;;;;;;14.58;68.27;96243.88;4994701;28;19986;-77
2023/03/13 05:53:08;;;;;;;;;;;;;;;14.39;68.76;96234.31;5006987;28;20033;-78
2023/03/13 05:55:33;;;;;;;;;;;;;;;14.54;68.42;96237.69;5026983;28;19924;-78
2023/03/13 05:57:58;;;;;;;;;;;;;;;14.61;67.70;96245.94;4991678;28;19921;-79
2023/03/13 06:00:24;;;;;;;;;;;;;;;14.42;69.62;96236.31;5009355;28;19913;-80
2023/03/13 06:02:49;;;;;;;;;;;;;;;14.50;69.30;96236.72;5026018;28;20291;-79
2023/03/13 06:05:14;;;;;;;;;;;;;;;14.12;70.33;96234.28;5011152;28;19921;-78
2023/03/13 06:07:40;;;;;;;;;;;;;;;14.56;69.04;96248.63;4987793;28;19920;-82
2023/03/13 06:10:05;;;;;;;;;;;;;;;14.40;69.57;96248.94;4985961;28;19968;-84
2023/03/13 06:12:31;;;;;;;;;;;;;;;14.35;69.79;96238.56;4999359;28;19948;-84
2023/03/13 06:14:56;;;;;;;;;;;;;;;14.54;69.17;96250.78;5021578;28;19923;-85
2023/03/13 06:17:21;;;;;;;;;;;;;;;14.83;68.46;96247.84;4999481;28;19931;-84
2023/03/13 06:19:46;;;;;;;;;;;;;;;14.67;68.92;96236.94;4990609;28;19920;-84
2023/03/13 06:22:12;;;;;;;;;;;;;;;14.74;68.82;96242.53;5005469;28;19913;-84
2023/03/13 06:24:37;;;;;;;;;;;;;;;14.55;69.55;96229.53;4990428;28;20283;-83
2023/03/13 06:27:02;;;;;;;;;;;;;;;14.11;71.07;96227.50;4987187;28;19920;-84
2023/03/13 06:29:28;;;;;;;;;;;;;;;14.47;70.23;96235.44;5018952;28;20327;-81
2023/03/13 06:31:53;;;;;;;;;;;;;;;14.50;70.38;96228.88;5021868;28;19917;-85
2023/03/13 06:34:18;;;;;;;;;;;;;;;14.47;70.60;96227.59;5008808;28;19932;-83
2023/03/13 06:36:43;;;;;;;;;;;;;;;14.64;69.93;96218.41;4993683;28;20035;-84
2023/03/13 06:39:09;;;;;;;;;;;;;;;14.77;68.92;96215.75;5010126;28;20371;-87
2023/03/13 06:41:34;;;;;;;;;;;;;;;14.87;68.88;96212.13;5010711;28;19935;-85
2023/03/13 06:44:00;;;;;;;;;;;;;;;14.86;69.12;96200.09;4995492;28;20590;-83
2023/03/13 06:46:25;;;;;;;;;;;;;;;14.94;68.84;96194.16;5026333;28;19917;-84
2023/03/13 06:48:50;;;;;;;;;;;;;;;14.94;68.80;96196.00;4985642;28;19944;-83
2023/03/13 06:51:16;;;;;;;;;;;;;;;14.91;68.94;96201.84;5016191;28;19963;-85
2023/03/13 06:53:42;;;;;;;;;;;;;;;14.62;69.99;96205.59;5010612;28;19913;-83
2023/03/13 06:56:07;;;;;;;;;;;;;;;14.62;70.19;96210.81;4988572;28;19920;-84
2023/03/13 06:58:33;;;;;;;;;;;;;;;14.39;70.71;96202.88;4981573;28;19968;-84
2023/03/13 07:00:58;;;;;;;;;;;;;;;14.51;70.66;96206.81;5001923;28;20312;-84
2023/03/13 07:03:24;;;;;;;;;;;;;;;14.46;70.75;96201.69;4999423;28;20192;-86
2023/03/13 07:05:54;;;;;;;;;;;;;;;14.83;69.31;96199.91;5013775;28;20012;-83
2023/03/13 07:08:19;;;;;;;;;;;;;;;14.50;70.79;96207.91;5008570;28;21387;-83
2023/03/13 07:10:47;;;;;;;;;;;;;;;14.76;69.70;96210.81;5001711;28;20364;-85
2023/03/13 07:13:12;;;;;;;;;;;;;;;14.64;70.16;96216.53;5017342;28;20411;-82
2023/03/13 07:15:37;;;;;;;;;;;;;;;14.85;69.57;96213.50;5032723;28;19913;-82
2023/03/13 07:18:03;;;;;;;;;;;;;;;15.00;68.80;96213.16;5000343;28;19975;-85
2023/03/13 07:20:28;;;;;;;;;;;;;;;14.67;70.19;96218.59;5033394;28;19920;-83
2023/03/13 07:22:53;;;;;;;;;;;;;;;14.67;69.84;96187.16;5001367;28;19917;-85
2023/03/13 07:25:19;;;;;;;;;;;;;;;14.80;69.55;96211.75;5016365;28;19924;-83
2023/03/13 07:27:44;;;;;;;;;;;;;;;14.88;69.10;96211.06;5000422;28;19917;-85
2023/03/13 07:30:10;;;;;;;;;;;;;;;14.77;69.20;96207.88;5016122;28;19913;-84
2023/03/13 07:32:35;;;;;;;;;;;;;;;14.40;70.90;96216.75;5031418;28;19924;-81
2023/03/13 07:35:02;;;;;;;;;;;;;;;14.74;69.54;96226.03;5016468;28;19909;-80
2023/03/13 07:37:27;;;;;;;;;;;;;;;14.95;68.67;96221.13;5019698;28;19916;-83
2023/03/13 07:39:53;;;;;;;;;;;;;;;14.91;69.06;96215.72;5013409;28;19920;-84
2023/03/13 07:42:18;;;;;;;;;;;;;;;14.77;69.27;96218.38;5017397;28;19913;-87
2023/03/13 07:44:43;;;;;;;;;;;;;;;14.93;69.44;96207.56;5000439;28;19925;-84
2023/03/13 07:47:08;;;;;;;;;;;;;;;14.99;69.14;96219.47;5028212;28;19917;-83
2023/03/13 07:49:39;;;;;;;;;;;;;;;15.21;68.08;96216.09;5017857;28;19913;-84
2023/03/13 07:52:05;;;;;;;;;;;;;;;15.07;68.30;96216.16;5015411;28;19931;-85
2023/03/13 07:54:30;;;;;;;;;;;;;;;14.70;69.10;96199.66;5033940;28;19912;-85
2023/03/13 07:56:55;;;;;;;;;;;;;;;14.90;68.96;96192.41;5013683;28;19920;-82
2023/03/13 07:59:21;;;;;;;;;;;;;;;14.91;68.50;96191.34;5026387;28;19994;-83
2023/03/13 08:01:46;;;;;;;;;;;;;;;14.67;69.12;96196.81;5000970;28;19917;-85
2023/03/13 08:04:12;;;;;;;;;;;;;;;14.81;69.55;96191.59;5030982;28;20000;-81
2023/03/13 08:06:39;;;;;;;;;;;;;;;15.21;68.28;96194.34;4994006;28;19924;-82
2023/03/13 08:09:05;;;;;;;;;;;;;;;14.98;68.61;96194.34;5015899;28;20243;-83
2023/03/13 08:11:30;;;;;;;;;;;;;;;15.21;67.55;96199.59;5017401;28;19956;-83
2023/03/13 08:13:56;;;;;;;;;;;;;;;15.35;67.49;96201.09;5030257;28;20330;-84
2023/03/13 08:16:22;;;;;;;;;;;;;;;15.17;67.95;96189.69;4996079;28;20385;-83
2023/03/13 08:18:48;;;;;;;;;;;;;;;14.98;68.64;96187.25;4997255;28;20265;-82
2023/03/13 08:21:14;;;;;;;;;;;;;;;14.84;69.55;96196.22;4996816;28;19920;-84
2023/03/13 08:23:40;;;;;;;;;;;;;;;14.99;69.34;96201.13;4993873;28;20033;-81
2023/03/13 08:26:06;;;;;;;;;;;;;;;15.31;67.93;96204.59;5007399;28;20243;-82
2023/03/13 08:28:32;;;;;;;;;;;;;;;15.22;68.08;96191.44;5028710;28;20360;-81
2023/03/13 08:30:57;;;;;;;;;;;;;;;15.19;68.35;96186.78;5012086;28;19947;-84
2023/03/13 08:33:23;;;;;;;;;;;;;;;15.11;68.39;96179.63;5006992;28;20357;-84
2023/03/13 08:35:48;;;;;;;;;;;;;;;15.21;69.10;96174.13;4996870;28;19916;-83
2023/03/13 08:38:13;;;;;;;;;;;;;;;15.29;68.94;96176.06;4995494;28;19922;-83
2023/03/13 08:40:39;;;;;;;;;;;;;;;15.40;68.77;96173.19;4996821;28;19917;-84
2023/03/13 08:43:04;;;;;;;;;;;;;;;15.65;68.12;96172.56;5027969;28;20304;-83
2023/03/13 08:45:29;;;;;;;;;;;;;;;15.38;68.37;96168.22;5004917;28;19925;-83
2023/03/13 08:47:54;;;;;;;;;;;;;;;15.54;68.69;96169.41;5025951;28;19919;-81
2023/03/13 08:50:20;;;;;;;;;;;;;;;15.55;68.30;96180.69;5033131;28;20211;-83
2023/03/13 08:52:45;;;;;;;;;;;;;;;15.85;67.29;96186.25;5044068;28;20352;-83
2023/03/13 08:55:10;;;;;;;;;;;;;;;15.82;67.20;96187.63;5021495;28;19913;-82
2023/03/13 08:57:36;;;;;;;;;;;;;;;15.71;66.49;96192.34;5014509;28;20391;-82
2023/03/13 09:00:01;;;;;;;;;;;;;;;15.54;67.26;96203.53;5029660;28;19948;-81
2023/03/13 09:02:26;;;;;;;;;;;;;;;15.35;68.37;96200.28;5028692;28;19913;-84
2023/03/13 09:04:51;;;;;;;;;;;;;;;15.71;66.72;96202.84;4994433;28;19976;-83
2023/03/13 09:07:17;;;;;;;;;;;;;;;15.42;67.42;96205.13;5026602;28;19948;-84
2023/03/13 09:09:42;;;;;;;;;;;;;;;15.95;66.10;96198.34;5025360;28;19913;-81
2023/03/13 09:12:08;;;;;;;;;;;;;;;15.65;67.26;96193.53;5008007;28;19913;-86
2023/03/13 09:14:33;;;;;;;;;;;;;;;15.94;66.64;96194.16;4993457;28;20387;-83
2023/03/13 09:16:58;;;;;;;;;;;;;;;15.74;67.02;96196.22;5009283;28;19921;-81
2023/03/13 09:19:24;;;;;;;;;;;;;;;15.89;66.01;96202.94;5003031;28;19913;-81
2023/03/13 09:21:49;;;;;;;;;;;;;;;16.03;65.54;96194.97;4991479;28;19921;-81
2023/03/13 09:24:14;;;;;;;;;;;;;;;15.66;66.29;96204.81;5010530;28;20355;-80
2023/03/13 09:26:40;;;;;;;;;;;;;;;15.68;66.12;96200.06;5011537;28;19917;-83
2023/03/13 09:29:05;;;;;;;;;;;;;;;15.97;65.29;96194.34;5011864;28;19979;-82
2023/03/13 09:31:31;;;;;;;;;;;;;;;15.91;65.64;96190.28;5010048;28;19913;-81
2023/03/13 09:33:57;;;;;;;;;;;;;;;16.05;65.22;96184.94;5011660;28;19952;-82
2023/03/13 09:36:22;;;;;;;;;;;;;;;15.88;65.33;96175.91;5011707;28;19917;-82
2023/03/13 09:38:48;;;;;;;;;;;;;;;16.10;65.25;96161.16;5012315;28;20394;-84
2023/03/13 09:41:19;;;;;;;;;;;;;;;15.96;65.24;96163.91;5012779;28;20024;-82
2023/03/13 09:43:46;;;;;;;;;;;;;;;15.88;65.67;96164.66;5011993;28;19913;-83
2023/03/13 09:46:16;;;;;;;;;;;;;;;15.57;66.01;96157.53;5003769;28;19917;-82
2023/03/13 09:48:46;;;;;;;;;;;;;;;16.01;65.73;96163.78;5013047;28;19919;-81
2023/03/13 09:51:18;;;;;;;;;;;;;;;15.97;65.01;96149.72;5011607;28;20327;-80
2023/03/13 09:53:46;;;;;;;;;;;;;;;15.97;65.74;96146.28;5028821;28;19919;-84
2023/03/13 09:56:14;;;;;;;;;;;;;;;15.94;64.89;96139.03;5011584;28;19963;-81
2023/03/13 09:58:40;;;;;;;;;;;;;;;16.12;65.21;96140.63;5029170;28;20376;-80
2023/03/13 10:01:05;;;;;;;;;;;;;;;16.14;64.30;96125.34;5012111;28;19956;-82
2023/03/13 10:03:34;;;;;;;;;;;;;;;16.24;63.37;96127.66;5027228;28;20415;-80
2023/03/13 10:06:00;;;;;;;;;;;;;;;16.40;64.34;96137.75;5011710;28;20307;-83
2023/03/13 10:08:35;;;;;;;;;;;;;;;16.31;64.75;96131.72;5010604;28;19913;-80
2023/03/13 10:11:18;;;;;;;;;;;;;;;16.20;63.78;96118.09;5012030;28;19975;-80
2023/03/13 10:13:45;;;;;;;;;;;;;;;16.80;62.66;96116.59;5025216;28;19967;-80
2023/03/13 10:16:10;;;;;;;;;;;;;;;16.93;62.84;96117.53;5011517;28;20431;-82
2023/03/13 10:18:36;;;;;;;;;;;;;;;16.88;62.44;96110.59;5008807;28;20016;-82
2023/03/13 10:21:04;;;;;;;;;;;;;;;16.89;62.21;96112.13;4993402;28;19986;-82
2023/03/13 10:23:40;;;;;;;;;;;;;;;16.94;62.31;96096.19;4994690;28;19917;-84
2023/03/13 10:26:08;;;;;;;;;;;;;;;17.07;62.59;96091.84;5011618;28;20284;-82
2023/03/13 10:28:33;;;;;;;;;;;;;;;16.81;62.54;96089.22;5011303;28;20432;-85
2023/03/13 10:30:58;;;;;;;;;;;;;;;16.99;61.87;96088.16;4995313;28;19944;-83
2023/03/13 10:33:25;;;;;;;;;;;;;;;17.52;62.07;96090.66;5009885;28;19940;-84
2023/03/13 10:36:00;;;;;;;;;;;;;;;17.99;62.40;96082.69;5011570;28;19913;-83
2023/03/13 10:38:25;;;;;;;;;;;;;;;17.30;61.45;96076.63;5025577;28;20288;-83
2023/03/13 10:41:00;;;;;;;;;;;;;;;17.66;61.13;96067.50;4994398;28;19912;-82
2023/03/13 10:43:27;;;;;;;;;;;;;;;17.69;59.81;96074.78;5006176;28;20375;-81
2023/03/13 10:45:52;;;;;;;;;;;;;;;18.25;60.01;96063.31;4991305;28;20419;-83
2023/03/13 10:48:18;;;;;;;;;;;;;;;18.47;58.79;96062.22;4983856;28;20029;-81
2023/03/13 10:50:44;;;;;;;;;;;;;;;18.82;58.85;96059.31;5028307;28;20291;-82
2023/03/13 10:53:19;;;;;;;;;;;;;;;18.97;57.71;96055.28;5011257;28;19917;-81
2023/03/13 10:55:45;;;;;;;;;;;;;;;18.57;58.83;96045.25;4993579;28;19924;-81
2023/03/13 10:58:14;;;;;;;;;;;;;;;18.41;58.89;96042.44;4995567;28;20339;-84
2023/03/13 11:00:41;;;;;;;;;;;;;;;18.87;57.73;96041.44;5010111;28;20287;-82
2023/03/13 11:03:16;;;;;;;;;;;;;;;18.88;56.67;96029.78;4996161;28;19914;-81
2023/03/13 11:05:42;;;;;;;;;;;;;;;19.44;55.20;96021.38;5003691;28;19945;-82
2023/03/13 11:08:26;;;;;;;;;;;;;;;19.89;57.09;96019.75;5009612;28;19917;-82
2023/03/13 11:10:52;;;;;;;;;;;;;;;20.12;56.05;96017.41;5011562;28;19917;-80
2023/03/13 11:13:37;;;;;;;;;;;;;;;19.51;55.33;96010.28;5009964;28;19919;-85
2023/03/13 11:16:19;;;;;;;;;;;;;;;20.14;54.76;96004.59;5010939;28;20347;-83
2023/03/13 11:19:03;;;;;;;;;;;;;;;20.85;52.54;96004.22;4992114;28;19971;-82
2023/03/13 11:21:37;;;;;;;;;;;;;;;21.19;51.02;96008.09;5000560;28;19992;-84
2023/03/13 11:24:04;;;;;;;;;;;;;;;21.37;50.01;96005.88;5002732;28;20027;-83
2023/03/13 11:26:36;;;;;;;;;;;;;;;20.33;53.23;95987.38;5019614;28;19966;-82
2023/03/13 11:29:05;;;;;;;;;;;;;;;20.25;52.86;95989.03;5019852;28;19913;-85
2023/03/13 11:31:31;;;;;;;;;;;;;;;19.62;53.68;95984.97;5024087;28;19917;-84
2023/03/13 11:34:02;;;;;;;;;;;;;;;19.95;53.72;95986.72;4991339;28;20004;-81
2023/03/13 11:36:31;;;;;;;;;;;;;;;19.84;55.10;95993.56;5018116;28;19920;-82
2023/03/13 11:39:15;;;;;;;;;;;;;;;19.48;55.38;95970.56;5028212;28;19924;-85
2023/03/13 11:41:59;;;;;;;;;;;;;;;19.49;54.94;95967.63;5011048;28;19913;-86
2023/03/13 11:44:43;;;;;;;;;;;;;;;20.04;53.61;95951.47;5008481;28;20411;-82
2023/03/13 11:47:28;;;;;;;;;;;;;;;20.27;52.89;95965.72;5026227;28;20381;-81
2023/03/13 11:49:53;;;;;;;;;;;;;;;20.20;53.20;95950.41;5031458;28;20415;-84
2023/03/13 11:52:23;;;;;;;;;;;;;;;20.24;53.57;95939.16;5012211;28;19917;-82
2023/03/13 11:54:51;;;;;;;;;;;;;;;20.28;52.26;95948.72;4994125;28;19913;-83
2023/03/13 11:57:28;;;;;;;;;;;;;;;20.49;52.95;95945.88;5004615;28;19914;-82
2023/03/13 11:59:56;;;;;;;;;;;;;;;20.46;53.63;95929.91;5010230;28;19928;-84
2023/03/13 12:02:30;;;;;;;;;;;;;;;20.55;52.59;95926.00;5031402;28;20330;-87
2023/03/13 12:04:56;;;;;;;;;;;;;;;20.56;51.67;95918.84;4994209;28;19929;-83
2023/03/13 12:07:24;;;;;;;;;;;;;;;20.82;52.50;95910.44;4996080;28;20349;-81
2023/03/13 12:09:55;;;;;;;;;;;;;;;21.29;50.28;95906.97;5029454;28;19923;-86
2023/03/13 12:12:33;;;;;;;;;;;;;;;21.38;49.77;95898.84;5024421;28;19947;-83
2023/03/13 12:14:59;;;;;;;;;;;;;;;21.65;49.20;95886.56;5026596;28;20000;-83
2023/03/13 12:17:30;;;;;;;;;;;;;;;21.51;49.37;95891.59;5013444;28;20455;-81
2023/03/13 12:20:08;;;;;;;;;;;;;;;21.88;48.68;95885.88;4995133;28;19968;-81
2023/03/13 12:22:52;;;;;;;;;;;;;;;22.23;47.94;95883.13;4996025;28;20369;-81
2023/03/13 12:25:22;;;;;;;;;;;;;;;22.01;47.36;95876.66;5028035;28;19917;-82
2023/03/13 12:28:00;;;;;;;;;;;;;;;21.24;49.14;95890.59;5013086;28;19994;-81
2023/03/13 12:30:31;;;;;;;;;;;;;;;21.56;49.64;95872.78;5024124;28;19914;-80
2023/03/13 12:32:58;;;;;;;;;;;;;;;21.67;48.29;95867.69;5002278;28;19935;-82
2023/03/13 12:35:28;;;;;;;;;;;;;;;21.74;49.44;95867.81;5028202;28;19913;-82
2023/03/13 12:38:08;;;;;;;;;;;;;;;21.72;49.55;95859.47;5008700;28;19913;-82
2023/03/13 12:40:38;;;;;;;;;;;;;;;21.54;48.29;95858.34;5017409;28;19920;-83
2023/03/13 12:43:05;;;;;;;;;;;;;;;21.36;49.35;95847.34;5012753;28;20284;-80
2023/03/13 12:45:31;;;;;;;;;;;;;;;20.93;49.93;95853.25;5010192;28;20010;-82